sensor_id;sensor_type;location;lat;lon;timestamp;temperature;humidity
16172;DHT22;8192;53.596;10.166;2023-07-31T00:02:02;13.30;99.90
16172;DHT22;8192;53.596;10.166;2023-07-31T00:04:29;13.30;99.90
16172;DHT22;8192;53.596;10.166;2023-07-31T00:06:57;13.40;99.90
16172;DHT22;8192;53.596;10.166;2023-07-31T00:09:24;13.40;99.90
16172;DHT22;8192;53.596;10.166;2023-07-31T00:11:51;13.40;99.90
16172;DHT22;8192;53.596;10.166;2023-07-31T00:14:18;13.50;99.90
16172;DHT22;8192;53.596;10.166;2023-07-31T00:16:45;13.50;99.90
16172;DHT22;8192;53.596;10.166;2023-07-31T00:19:12;13.50;99.90
16172;DHT22;8192;53.596;10.166;2023-07-31T00:21:39;13.50;99.90
16172;DHT22;8192;53.596;10.166;2023-07-31T00:24:08;13.50;99.90
16172;DHT22;8192;53.596;10.166;2023-07-31T00:26:35;13.50;99.90
16172;DHT22;8192;53.596;10.166;2023-07-31T00:29:02;13.60;99.90
16172;DHT22;8192;53.596;10.166;2023-07-31T00:31:28;13.70;99.90
16172;DHT22;8192;53.596;10.166;2023-07-31T00:33:55;13.70;99.90
16172;DHT22;8192;53.596;10.166;2023-07-31T00:36:22;13.80;99.90
16172;DHT22;8192;53.596;10.166;2023-07-31T00:38:49;13.70;99.90
16172;DHT22;8192;53.596;10.166;2023-07-31T00:41:18;13.70;99.90
16172;DHT22;8192;53.596;10.166;2023-07-31T00:43:45;13.80;99.90
16172;DHT22;8192;53.596;10.166;2023-07-31T00:46:12;13.70;99.90
16172;DHT22;8192;53.596;10.166;2023-07-31T00:48:39;13.80;99.90
16172;DHT22;8192;53.596;10.166;2023-07-31T00:51:07;13.80;99.90
16172;DHT22;8192;53.596;10.166;2023-07-31T00:53:35;13.80;99.90
16172;DHT22;8192;53.596;10.166;2023-07-31T00:56:02;13.80;99.90
16172;DHT22;8192;53.596;10.166;2023-07-31T00:58:31;13.80;99.90
16172;DHT22;8192;53.596;10.166;2023-07-31T01:00:58;13.80;99.90
16172;DHT22;8192;53.596;10.166;2023-07-31T01:03:25;13.70;99.90
16172;DHT22;8192;53.596;10.166;2023-07-31T01:05:58;13.60;99.90
16172;DHT22;8192;53.596;10.166;2023-07-31T01:08:32;13.50;99.90
16172;DHT22;8192;53.596;10.166;2023-07-31T01:11:05;13.50;99.90
16172;DHT22;8192;53.596;10.166;2023-07-31T01:13:35;13.50;99.90
16172;DHT22;8192;53.596;10.166;2023-07-31T01:16:01;13.40;99.90
16172;DHT22;8192;53.596;10.166;2023-07-31T01:18:28;13.40;99.90
16172;DHT22;8192;53.596;10.166;2023-07-31T01:21:05;13.40;99.90
16172;DHT22;8192;53.596;10.166;2023-07-31T01:23:51;13.40;99.90
16172;DHT22;8192;53.596;10.166;2023-07-31T01:26:27;13.30;99.90
16172;DHT22;8192;53.596;10.166;2023-07-31T01:29:00;13.20;99.90
16172;DHT22;8192;53.596;10.166;2023-07-31T01:31:29;13.30;99.90
16172;DHT22;8192;53.596;10.166;2023-07-31T01:34:00;13.20;99.90
16172;DHT22;8192;53.596;10.166;2023-07-31T01:36:28;13.20;99.90
16172;DHT22;8192;53.596;10.166;2023-07-31T01:38:58;13.20;99.90
16172;DHT22;8192;53.596;10.166;2023-07-31T01:41:27;13.30;99.90
16172;DHT22;8192;53.596;10.166;2023-07-31T01:43:54;13.20;99.90
16172;DHT22;8192;53.596;10.166;2023-07-31T01:46:21;13.20;99.90
16172;DHT22;8192;53.596;10.166;2023-07-31T01:48:48;13.20;99.90
16172;DHT22;8192;53.596;10.166;2023-07-31T01:51:15;13.20;99.90
16172;DHT22;8192;53.596;10.166;2023-07-31T01:53:42;13.20;99.90
16172;DHT22;8192;53.596;10.166;2023-07-31T01:56:09;13.40;99.90
16172;DHT22;8192;53.596;10.166;2023-07-31T01:58:38;13.40;99.90
16172;DHT22;8192;53.596;10.166;2023-07-31T02:01:05;13.40;99.90
16172;DHT22;8192;53.596;10.166;2023-07-31T02:03:32;13.40;99.90
16172;DHT22;8192;53.596;10.166;2023-07-31T02:05:59;13.40;99.90
16172;DHT22;8192;53.596;10.166;2023-07-31T02:08:25;13.50;99.90
16172;DHT22;8192;53.596;10.166;2023-07-31T02:10:54;13.50;99.90
16172;DHT22;8192;53.596;10.166;2023-07-31T02:13:21;13.50;99.90
16172;DHT22;8192;53.596;10.166;2023-07-31T02:15:49;13.60;99.90
16172;DHT22;8192;53.596;10.166;2023-07-31T02:18:17;13.60;99.90
16172;DHT22;8192;53.596;10.166;2023-07-31T02:20:48;13.70;99.90
16172;DHT22;8192;53.596;10.166;2023-07-31T02:23:15;13.70;99.90
16172;DHT22;8192;53.596;10.166;2023-07-31T02:25:42;13.70;99.90
16172;DHT22;8192;53.596;10.166;2023-07-31T02:28:09;13.70;99.90
16172;DHT22;8192;53.596;10.166;2023-07-31T02:30:36;13.80;99.90
16172;DHT22;8192;53.596;10.166;2023-07-31T02:33:05;13.80;99.90
16172;DHT22;8192;53.596;10.166;2023-07-31T02:35:32;13.80;99.90
16172;DHT22;8192;53.596;10.166;2023-07-31T02:37:59;13.80;99.90
16172;DHT22;8192;53.596;10.166;2023-07-31T02:40:26;13.80;99.90
16172;DHT22;8192;53.596;10.166;2023-07-31T02:42:53;13.80;99.90
16172;DHT22;8192;53.596;10.166;2023-07-31T02:45:20;13.70;99.90
16172;DHT22;8192;53.596;10.166;2023-07-31T02:47:47;13.80;99.90
16172;DHT22;8192;53.596;10.166;2023-07-31T02:50:15;13.80;99.90
16172;DHT22;8192;53.596;10.166;2023-07-31T02:52:42;13.80;99.90
16172;DHT22;8192;53.596;10.166;2023-07-31T02:55:09;13.70;99.90
16172;DHT22;8192;53.596;10.166;2023-07-31T02:57:36;13.80;99.90
16172;DHT22;8192;53.596;10.166;2023-07-31T03:00:04;13.80;99.90
16172;DHT22;8192;53.596;10.166;2023-07-31T03:02:32;13.90;99.90
16172;DHT22;8192;53.596;10.166;2023-07-31T03:04:59;13.90;99.90
16172;DHT22;8192;53.596;10.166;2023-07-31T03:07:27;13.90;99.90
16172;DHT22;8192;53.596;10.166;2023-07-31T03:09:55;13.90;99.90
16172;DHT22;8192;53.596;10.166;2023-07-31T03:12:22;14.00;99.90
16172;DHT22;8192;53.596;10.166;2023-07-31T03:14:49;13.90;99.90
16172;DHT22;8192;53.596;10.166;2023-07-31T03:17:16;13.90;99.90
16172;DHT22;8192;53.596;10.166;2023-07-31T03:19:44;13.90;99.90
16172;DHT22;8192;53.596;10.166;2023-07-31T03:22:10;13.90;99.90
16172;DHT22;8192;53.596;10.166;2023-07-31T03:24:39;13.90;99.90
16172;DHT22;8192;53.596;10.166;2023-07-31T03:27:06;13.90;99.90
16172;DHT22;8192;53.596;10.166;2023-07-31T03:29:33;14.00;99.90
16172;DHT22;8192;53.596;10.166;2023-07-31T03:32:00;13.90;99.90
16172;DHT22;8192;53.596;10.166;2023-07-31T03:34:27;14.00;99.90
16172;DHT22;8192;53.596;10.166;2023-07-31T03:36:54;14.10;99.90
16172;DHT22;8192;53.596;10.166;2023-07-31T03:39:21;14.10;99.90
16172;DHT22;8192;53.596;10.166;2023-07-31T03:41:49;14.10;99.90
16172;DHT22;8192;53.596;10.166;2023-07-31T03:44:16;14.20;99.90
16172;DHT22;8192;53.596;10.166;2023-07-31T03:46:43;14.20;99.90
16172;DHT22;8192;53.596;10.166;2023-07-31T03:49:10;14.20;99.90
16172;DHT22;8192;53.596;10.166;2023-07-31T03:51:38;14.30;99.90
16172;DHT22;8192;53.596;10.166;2023-07-31T03:54:04;14.40;99.90
16172;DHT22;8192;53.596;10.166;2023-07-31T03:56:33;14.40;99.90
16172;DHT22;8192;53.596;10.166;2023-07-31T03:59:01;14.40;99.90
16172;DHT22;8192;53.596;10.166;2023-07-31T04:01:28;14.50;99.90
16172;DHT22;8192;53.596;10.166;2023-07-31T04:03:55;14.40;99.90
16172;DHT22;8192;53.596;10.166;2023-07-31T04:06:22;14.60;99.90
16172;DHT22;8192;53.596;10.166;2023-07-31T04:08:49;14.60;99.90
16172;DHT22;8192;53.596;10.166;2023-07-31T04:11:16;14.60;99.90
16172;DHT22;8192;53.596;10.166;2023-07-31T04:13:43;14.60;99.90
16172;DHT22;8192;53.596;10.166;2023-07-31T04:16:11;14.70;99.90
16172;DHT22;8192;53.596;10.166;2023-07-31T04:18:38;14.70;99.90
16172;DHT22;8192;53.596;10.166;2023-07-31T04:21:05;14.70;99.90
16172;DHT22;8192;53.596;10.166;2023-07-31T04:23:32;14.70;99.90
16172;DHT22;8192;53.596;10.166;2023-07-31T04:25:59;14.70;99.90
16172;DHT22;8192;53.596;10.166;2023-07-31T04:28:26;14.70;99.90
16172;DHT22;8192;53.596;10.166;2023-07-31T04:30:55;14.80;99.90
16172;DHT22;8192;53.596;10.166;2023-07-31T04:33:24;14.80;99.90
16172;DHT22;8192;53.596;10.166;2023-07-31T04:35:52;14.90;99.90
16172;DHT22;8192;53.596;10.166;2023-07-31T04:38:19;15.00;99.90
16172;DHT22;8192;53.596;10.166;2023-07-31T04:40:47;15.00;99.90
16172;DHT22;8192;53.596;10.166;2023-07-31T04:43:14;14.90;99.90
16172;DHT22;8192;53.596;10.166;2023-07-31T04:45:42;14.90;99.90
16172;DHT22;8192;53.596;10.166;2023-07-31T04:48:11;14.90;99.90
16172;DHT22;8192;53.596;10.166;2023-07-31T04:50:40;15.00;99.90
16172;DHT22;8192;53.596;10.166;2023-07-31T04:53:07;15.00;99.90
16172;DHT22;8192;53.596;10.166;2023-07-31T04:55:34;15.10;99.90
16172;DHT22;8192;53.596;10.166;2023-07-31T04:58:01;15.00;99.90
16172;DHT22;8192;53.596;10.166;2023-07-31T05:00:28;15.00;99.90
16172;DHT22;8192;53.596;10.166;2023-07-31T05:02:55;15.10;99.90
16172;DHT22;8192;53.596;10.166;2023-07-31T05:05:22;15.20;99.90
16172;DHT22;8192;53.596;10.166;2023-07-31T05:07:51;15.10;99.90
16172;DHT22;8192;53.596;10.166;2023-07-31T05:10:18;15.20;99.90
16172;DHT22;8192;53.596;10.166;2023-07-31T05:12:45;15.20;99.90
16172;DHT22;8192;53.596;10.166;2023-07-31T05:15:12;15.20;99.90
16172;DHT22;8192;53.596;10.166;2023-07-31T05:17:39;15.10;99.90
16172;DHT22;8192;53.596;10.166;2023-07-31T05:20:07;15.10;99.90
16172;DHT22;8192;53.596;10.166;2023-07-31T05:22:34;15.00;99.90
16172;DHT22;8192;53.596;10.166;2023-07-31T05:25:03;15.10;99.90
16172;DHT22;8192;53.596;10.166;2023-07-31T05:27:31;15.10;99.90
16172;DHT22;8192;53.596;10.166;2023-07-31T05:30:00;15.10;99.90
16172;DHT22;8192;53.596;10.166;2023-07-31T05:32:27;15.20;99.90
16172;DHT22;8192;53.596;10.166;2023-07-31T05:34:54;15.10;99.90
16172;DHT22;8192;53.596;10.166;2023-07-31T05:37:21;15.20;99.90
16172;DHT22;8192;53.596;10.166;2023-07-31T05:39:48;15.30;99.90
16172;DHT22;8192;53.596;10.166;2023-07-31T05:42:17;15.30;99.90
16172;DHT22;8192;53.596;10.166;2023-07-31T05:44:44;15.20;99.90
16172;DHT22;8192;53.596;10.166;2023-07-31T05:47:12;15.30;99.90
16172;DHT22;8192;53.596;10.166;2023-07-31T05:49:39;15.40;99.90
16172;DHT22;8192;53.596;10.166;2023-07-31T05:52:06;15.30;99.90
16172;DHT22;8192;53.596;10.166;2023-07-31T05:54:33;15.20;99.90
16172;DHT22;8192;53.596;10.166;2023-07-31T05:57:00;15.30;99.90
16172;DHT22;8192;53.596;10.166;2023-07-31T05:59:28;15.40;99.90
16172;DHT22;8192;53.596;10.166;2023-07-31T06:01:58;15.30;99.90
16172;DHT22;8192;53.596;10.166;2023-07-31T06:04:25;15.40;99.90
16172;DHT22;8192;53.596;10.166;2023-07-31T06:06:52;15.50;99.90
16172;DHT22;8192;53.596;10.166;2023-07-31T06:09:20;15.40;99.90
16172;DHT22;8192;53.596;10.166;2023-07-31T06:11:47;15.40;99.90
16172;DHT22;8192;53.596;10.166;2023-07-31T06:14:14;15.60;99.90
16172;DHT22;8192;53.596;10.166;2023-07-31T06:16:44;15.70;99.90
16172;DHT22;8192;53.596;10.166;2023-07-31T06:19:11;15.70;99.90
16172;DHT22;8192;53.596;10.166;2023-07-31T06:21:38;15.70;99.90
16172;DHT22;8192;53.596;10.166;2023-07-31T06:24:07;15.80;99.90
16172;DHT22;8192;53.596;10.166;2023-07-31T06:26:34;15.70;99.90
16172;DHT22;8192;53.596;10.166;2023-07-31T06:29:02;15.90;99.90
16172;DHT22;8192;53.596;10.166;2023-07-31T06:31:29;15.90;99.90
16172;DHT22;8192;53.596;10.166;2023-07-31T06:33:57;15.80;99.90
16172;DHT22;8192;53.596;10.166;2023-07-31T06:36:24;15.80;99.90
16172;DHT22;8192;53.596;10.166;2023-07-31T06:38:52;15.80;99.90
16172;DHT22;8192;53.596;10.166;2023-07-31T06:41:19;15.80;99.90
16172;DHT22;8192;53.596;10.166;2023-07-31T06:43:46;15.90;99.90
16172;DHT22;8192;53.596;10.166;2023-07-31T06:46:13;15.90;99.90
16172;DHT22;8192;53.596;10.166;2023-07-31T06:48:40;15.80;99.90
16172;DHT22;8192;53.596;10.166;2023-07-31T06:51:09;15.90;99.90
16172;DHT22;8192;53.596;10.166;2023-07-31T06:53:36;15.90;99.90
16172;DHT22;8192;53.596;10.166;2023-07-31T06:56:04;15.90;99.90
16172;DHT22;8192;53.596;10.166;2023-07-31T06:58:31;15.90;99.90
16172;DHT22;8192;53.596;10.166;2023-07-31T07:00:58;15.90;99.90
16172;DHT22;8192;53.596;10.166;2023-07-31T07:03:25;16.00;99.90
16172;DHT22;8192;53.596;10.166;2023-07-31T07:05:52;15.90;99.90
16172;DHT22;8192;53.596;10.166;2023-07-31T07:08:20;15.90;99.90
16172;DHT22;8192;53.596;10.166;2023-07-31T07:10:48;16.00;99.90
16172;DHT22;8192;53.596;10.166;2023-07-31T07:13:14;16.10;99.90
16172;DHT22;8192;53.596;10.166;2023-07-31T07:15:43;16.00;99.90
16172;DHT22;8192;53.596;10.166;2023-07-31T07:18:14;16.00;99.90
16172;DHT22;8192;53.596;10.166;2023-07-31T07:20:46;15.90;99.90
16172;DHT22;8192;53.596;10.166;2023-07-31T07:23:13;15.90;99.90
16172;DHT22;8192;53.596;10.166;2023-07-31T07:25:47;15.90;99.90
16172;DHT22;8192;53.596;10.166;2023-07-31T07:28:14;15.90;99.90
16172;DHT22;8192;53.596;10.166;2023-07-31T07:30:41;15.90;99.90
16172;DHT22;8192;53.596;10.166;2023-07-31T07:33:08;15.90;99.90
16172;DHT22;8192;53.596;10.166;2023-07-31T07:35:36;15.90;99.90
16172;DHT22;8192;53.596;10.166;2023-07-31T07:38:05;15.80;99.90
16172;DHT22;8192;53.596;10.166;2023-07-31T07:40:32;15.90;99.90
16172;DHT22;8192;53.596;10.166;2023-07-31T07:43:00;15.90;99.90
16172;DHT22;8192;53.596;10.166;2023-07-31T07:45:27;15.90;99.90
16172;DHT22;8192;53.596;10.166;2023-07-31T07:47:54;15.90;99.90
16172;DHT22;8192;53.596;10.166;2023-07-31T07:50:22;15.90;99.90
16172;DHT22;8192;53.596;10.166;2023-07-31T07:52:49;16.00;99.90
16172;DHT22;8192;53.596;10.166;2023-07-31T07:55:18;15.90;99.90
16172;DHT22;8192;53.596;10.166;2023-07-31T07:57:44;15.90;99.90
16172;DHT22;8192;53.596;10.166;2023-07-31T08:00:14;15.80;99.90
16172;DHT22;8192;53.596;10.166;2023-07-31T08:02:41;16.00;99.90
16172;DHT22;8192;53.596;10.166;2023-07-31T08:05:08;16.10;99.90
16172;DHT22;8192;53.596;10.166;2023-07-31T08:07:35;16.30;99.90
16172;DHT22;8192;53.596;10.166;2023-07-31T08:10:02;16.40;99.90
16172;DHT22;8192;53.596;10.166;2023-07-31T08:12:29;16.40;99.90
16172;DHT22;8192;53.596;10.166;2023-07-31T08:14:56;16.50;99.90
16172;DHT22;8192;53.596;10.166;2023-07-31T08:17:24;16.50;99.90
16172;DHT22;8192;53.596;10.166;2023-07-31T08:19:51;16.70;99.90
16172;DHT22;8192;53.596;10.166;2023-07-31T08:22:18;16.80;99.90
16172;DHT22;8192;53.596;10.166;2023-07-31T08:24:45;16.80;99.90
16172;DHT22;8192;53.596;10.166;2023-07-31T08:27:12;16.90;99.90
16172;DHT22;8192;53.596;10.166;2023-07-31T08:29:39;16.90;99.90
16172;DHT22;8192;53.596;10.166;2023-07-31T08:32:06;16.90;99.90
16172;DHT22;8192;53.596;10.166;2023-07-31T08:34:35;16.90;99.90
16172;DHT22;8192;53.596;10.166;2023-07-31T08:37:01;16.90;99.90
16172;DHT22;8192;53.596;10.166;2023-07-31T08:39:28;17.20;99.90
16172;DHT22;8192;53.596;10.166;2023-07-31T08:41:58;17.50;99.90
16172;DHT22;8192;53.596;10.166;2023-07-31T08:44:25;17.90;99.90
16172;DHT22;8192;53.596;10.166;2023-07-31T08:46:53;18.00;99.90
16172;DHT22;8192;53.596;10.166;2023-07-31T08:49:20;17.90;99.90
16172;DHT22;8192;53.596;10.166;2023-07-31T08:51:54;18.10;99.90
16172;DHT22;8192;53.596;10.166;2023-07-31T08:54:23;17.90;99.90
16172;DHT22;8192;53.596;10.166;2023-07-31T08:56:55;17.90;99.90
16172;DHT22;8192;53.596;10.166;2023-07-31T08:59:23;18.00;99.90
16172;DHT22;8192;53.596;10.166;2023-07-31T09:01:53;18.00;99.90
16172;DHT22;8192;53.596;10.166;2023-07-31T09:04:23;18.00;99.90
16172;DHT22;8192;53.596;10.166;2023-07-31T09:06:54;18.00;99.90
16172;DHT22;8192;53.596;10.166;2023-07-31T09:09:23;17.90;99.90
16172;DHT22;8192;53.596;10.166;2023-07-31T09:11:50;17.90;99.90
16172;DHT22;8192;53.596;10.166;2023-07-31T09:14:18;17.90;99.90
16172;DHT22;8192;53.596;10.166;2023-07-31T09:16:53;17.80;99.90
16172;DHT22;8192;53.596;10.166;2023-07-31T09:19:27;17.80;99.90
16172;DHT22;8192;53.596;10.166;2023-07-31T09:21:56;17.90;99.90
16172;DHT22;8192;53.596;10.166;2023-07-31T09:24:27;17.70;99.90
16172;DHT22;8192;53.596;10.166;2023-07-31T09:26:54;17.70;99.90
16172;DHT22;8192;53.596;10.166;2023-07-31T09:29:26;17.50;99.90
16172;DHT22;8192;53.596;10.166;2023-07-31T09:31:53;17.30;99.90
16172;DHT22;8192;53.596;10.166;2023-07-31T09:34:29;17.30;99.90
16172;DHT22;8192;53.596;10.166;2023-07-31T09:37:01;17.20;99.90
16172;DHT22;8192;53.596;10.166;2023-07-31T09:39:29;17.20;99.90
16172;DHT22;8192;53.596;10.166;2023-07-31T09:41:57;17.20;99.90
16172;DHT22;8192;53.596;10.166;2023-07-31T09:44:37;17.20;99.90
16172;DHT22;8192;53.596;10.166;2023-07-31T09:47:05;17.30;99.90
16172;DHT22;8192;53.596;10.166;2023-07-31T09:49:32;17.40;99.90
16172;DHT22;8192;53.596;10.166;2023-07-31T09:52:00;17.50;99.90
16172;DHT22;8192;53.596;10.166;2023-07-31T09:54:27;17.60;99.90
16172;DHT22;8192;53.596;10.166;2023-07-31T09:56:58;17.60;99.90
16172;DHT22;8192;53.596;10.166;2023-07-31T09:59:26;17.50;99.90
16172;DHT22;8192;53.596;10.166;2023-07-31T10:01:54;17.50;99.90
16172;DHT22;8192;53.596;10.166;2023-07-31T10:04:25;17.60;99.90
16172;DHT22;8192;53.596;10.166;2023-07-31T10:06:54;17.90;99.90
16172;DHT22;8192;53.596;10.166;2023-07-31T10:09:24;17.80;99.90
16172;DHT22;8192;53.596;10.166;2023-07-31T10:11:56;17.60;99.90
16172;DHT22;8192;53.596;10.166;2023-07-31T10:14:26;17.60;99.90
16172;DHT22;8192;53.596;10.166;2023-07-31T10:16:54;17.60;99.90
16172;DHT22;8192;53.596;10.166;2023-07-31T10:19:21;17.60;99.90
16172;DHT22;8192;53.596;10.166;2023-07-31T10:21:49;17.50;99.90
16172;DHT22;8192;53.596;10.166;2023-07-31T10:24:16;17.50;99.90
16172;DHT22;8192;53.596;10.166;2023-07-31T10:26:47;17.40;99.90
16172;DHT22;8192;53.596;10.166;2023-07-31T10:29:16;17.50;99.90
16172;DHT22;8192;53.596;10.166;2023-07-31T10:31:44;17.50;99.90
16172;DHT22;8192;53.596;10.166;2023-07-31T10:34:13;17.40;99.90
16172;DHT22;8192;53.596;10.166;2023-07-31T10:36:40;17.30;99.90
16172;DHT22;8192;53.596;10.166;2023-07-31T10:39:35;17.20;99.90
16172;DHT22;8192;53.596;10.166;2023-07-31T10:42:21;17.20;99.90
16172;DHT22;8192;53.596;10.166;2023-07-31T10:44:57;17.10;99.90
16172;DHT22;8192;53.596;10.166;2023-07-31T10:47:24;17.00;99.90
16172;DHT22;8192;53.596;10.166;2023-07-31T10:49:51;17.00;99.90
16172;DHT22;8192;53.596;10.166;2023-07-31T10:52:21;16.90;99.90
16172;DHT22;8192;53.596;10.166;2023-07-31T10:55:14;16.90;99.90
16172;DHT22;8192;53.596;10.166;2023-07-31T10:57:47;17.00;99.90
16172;DHT22;8192;53.596;10.166;2023-07-31T11:00:24;17.10;99.90
16172;DHT22;8192;53.596;10.166;2023-07-31T11:03:00;17.10;99.90
16172;DHT22;8192;53.596;10.166;2023-07-31T11:06:01;17.30;99.90
16172;DHT22;8192;53.596;10.166;2023-07-31T11:08:30;17.20;99.90
16172;DHT22;8192;53.596;10.166;2023-07-31T11:11:08;17.10;99.90
16172;DHT22;8192;53.596;10.166;2023-07-31T11:13:42;17.00;99.90
16172;DHT22;8192;53.596;10.166;2023-07-31T11:16:10;16.90;99.90
16172;DHT22;8192;53.596;10.166;2023-07-31T11:18:39;16.80;99.90
16172;DHT22;8192;53.596;10.166;2023-07-31T11:21:07;16.80;99.90
16172;DHT22;8192;53.596;10.166;2023-07-31T11:23:37;16.70;99.90
16172;DHT22;8192;53.596;10.166;2023-07-31T11:26:05;16.70;99.90
16172;DHT22;8192;53.596;10.166;2023-07-31T11:28:33;16.90;99.90
16172;DHT22;8192;53.596;10.166;2023-07-31T11:31:02;17.20;99.90
16172;DHT22;8192;53.596;10.166;2023-07-31T11:33:30;17.30;99.90
16172;DHT22;8192;53.596;10.166;2023-07-31T11:35:57;17.50;99.90
16172;DHT22;8192;53.596;10.166;2023-07-31T11:38:27;17.40;99.90
16172;DHT22;8192;53.596;10.166;2023-07-31T11:40:55;17.40;99.90
16172;DHT22;8192;53.596;10.166;2023-07-31T11:43:22;17.40;99.90
16172;DHT22;8192;53.596;10.166;2023-07-31T11:45:51;17.40;99.90
16172;DHT22;8192;53.596;10.166;2023-07-31T11:48:21;17.40;99.90
16172;DHT22;8192;53.596;10.166;2023-07-31T11:50:49;17.50;99.90
16172;DHT22;8192;53.596;10.166;2023-07-31T11:53:23;17.60;99.90
16172;DHT22;8192;53.596;10.166;2023-07-31T11:55:50;17.60;99.90
16172;DHT22;8192;53.596;10.166;2023-07-31T11:58:18;17.50;99.90
16172;DHT22;8192;53.596;10.166;2023-07-31T12:00:46;17.50;99.90
16172;DHT22;8192;53.596;10.166;2023-07-31T12:03:13;17.40;99.90
16172;DHT22;8192;53.596;10.166;2023-07-31T12:05:41;17.20;99.90
16172;DHT22;8192;53.596;10.166;2023-07-31T12:08:09;17.10;99.90
16172;DHT22;8192;53.596;10.166;2023-07-31T12:10:37;17.10;99.90
16172;DHT22;8192;53.596;10.166;2023-07-31T12:13:10;17.00;99.90
16172;DHT22;8192;53.596;10.166;2023-07-31T12:15:41;16.80;99.90
16172;DHT22;8192;53.596;10.166;2023-07-31T12:18:10;16.70;99.90
16172;DHT22;8192;53.596;10.166;2023-07-31T12:20:42;16.80;99.90
16172;DHT22;8192;53.596;10.166;2023-07-31T12:23:14;16.80;99.90
16172;DHT22;8192;53.596;10.166;2023-07-31T12:25:42;16.80;99.90
16172;DHT22;8192;53.596;10.166;2023-07-31T12:28:09;17.00;99.90
16172;DHT22;8192;53.596;10.166;2023-07-31T12:30:39;17.10;99.90
16172;DHT22;8192;53.596;10.166;2023-07-31T12:33:11;17.10;99.90
16172;DHT22;8192;53.596;10.166;2023-07-31T12:35:43;17.00;99.90
16172;DHT22;8192;53.596;10.166;2023-07-31T12:38:11;16.90;99.90
16172;DHT22;8192;53.596;10.166;2023-07-31T12:40:38;16.80;99.90
16172;DHT22;8192;53.596;10.166;2023-07-31T12:43:06;16.70;99.90
16172;DHT22;8192;53.596;10.166;2023-07-31T12:45:34;16.70;99.90
16172;DHT22;8192;53.596;10.166;2023-07-31T12:48:01;16.70;99.90
16172;DHT22;8192;53.596;10.166;2023-07-31T12:50:29;16.80;99.90
16172;DHT22;8192;53.596;10.166;2023-07-31T12:52:57;16.70;99.90
16172;DHT22;8192;53.596;10.166;2023-07-31T12:55:24;16.80;99.90
16172;DHT22;8192;53.596;10.166;2023-07-31T12:57:52;16.60;99.90
16172;DHT22;8192;53.596;10.166;2023-07-31T13:00:19;16.60;99.90
16172;DHT22;8192;53.596;10.166;2023-07-31T13:02:46;16.60;99.90
16172;DHT22;8192;53.596;10.166;2023-07-31T13:05:14;16.60;99.90
16172;DHT22;8192;53.596;10.166;2023-07-31T13:07:41;16.50;99.90
16172;DHT22;8192;53.596;10.166;2023-07-31T13:10:10;16.50;99.90
16172;DHT22;8192;53.596;10.166;2023-07-31T13:12:37;16.60;99.90
16172;DHT22;8192;53.596;10.166;2023-07-31T13:15:11;16.60;99.90
16172;DHT22;8192;53.596;10.166;2023-07-31T13:17:38;16.60;99.90
16172;DHT22;8192;53.596;10.166;2023-07-31T13:20:06;16.70;99.90
16172;DHT22;8192;53.596;10.166;2023-07-31T13:22:33;16.50;99.90
16172;DHT22;8192;53.596;10.166;2023-07-31T13:25:00;16.50;99.90
16172;DHT22;8192;53.596;10.166;2023-07-31T13:27:29;16.40;99.90
16172;DHT22;8192;53.596;10.166;2023-07-31T13:29:57;16.40;99.90
16172;DHT22;8192;53.596;10.166;2023-07-31T13:32:24;16.40;99.90
16172;DHT22;8192;53.596;10.166;2023-07-31T13:34:51;16.50;99.90
16172;DHT22;8192;53.596;10.166;2023-07-31T13:37:18;16.40;99.90
16172;DHT22;8192;53.596;10.166;2023-07-31T13:39:45;16.40;99.90
16172;DHT22;8192;53.596;10.166;2023-07-31T13:42:12;16.50;99.90
16172;DHT22;8192;53.596;10.166;2023-07-31T13:44:42;16.50;99.90
16172;DHT22;8192;53.596;10.166;2023-07-31T13:47:09;16.50;99.90
16172;DHT22;8192;53.596;10.166;2023-07-31T13:49:36;16.60;99.90
16172;DHT22;8192;53.596;10.166;2023-07-31T13:52:04;16.60;99.90
16172;DHT22;8192;53.596;10.166;2023-07-31T13:54:32;16.60;99.90
16172;DHT22;8192;53.596;10.166;2023-07-31T13:56:59;16.60;99.90
16172;DHT22;8192;53.596;10.166;2023-07-31T13:59:27;16.50;99.90
16172;DHT22;8192;53.596;10.166;2023-07-31T14:01:55;16.60;99.90
16172;DHT22;8192;53.596;10.166;2023-07-31T14:04:22;16.50;99.90
16172;DHT22;8192;53.596;10.166;2023-07-31T14:06:49;16.30;99.90
16172;DHT22;8192;53.596;10.166;2023-07-31T14:09:17;16.20;99.90
16172;DHT22;8192;53.596;10.166;2023-07-31T14:11:44;16.20;99.90
16172;DHT22;8192;53.596;10.166;2023-07-31T14:14:11;16.20;99.90
16172;DHT22;8192;53.596;10.166;2023-07-31T14:16:39;16.10;99.90
16172;DHT22;8192;53.596;10.166;2023-07-31T14:19:08;16.30;99.90
16172;DHT22;8192;53.596;10.166;2023-07-31T14:21:37;16.40;99.90
16172;DHT22;8192;53.596;10.166;2023-07-31T14:24:04;16.50;99.90
16172;DHT22;8192;53.596;10.166;2023-07-31T14:26:31;16.60;99.90
16172;DHT22;8192;53.596;10.166;2023-07-31T14:28:58;16.60;99.90
16172;DHT22;8192;53.596;10.166;2023-07-31T14:31:25;16.60;99.90
16172;DHT22;8192;53.596;10.166;2023-07-31T14:33:52;16.60;99.90
16172;DHT22;8192;53.596;10.166;2023-07-31T14:36:20;16.50;99.90
16172;DHT22;8192;53.596;10.166;2023-07-31T14:38:47;16.40;99.90
16172;DHT22;8192;53.596;10.166;2023-07-31T14:41:14;16.40;99.90
16172;DHT22;8192;53.596;10.166;2023-07-31T14:43:41;16.30;99.90
16172;DHT22;8192;53.596;10.166;2023-07-31T14:46:08;16.30;99.90
16172;DHT22;8192;53.596;10.166;2023-07-31T14:48:35;16.20;99.90
16172;DHT22;8192;53.596;10.166;2023-07-31T14:51:02;16.20;99.90
16172;DHT22;8192;53.596;10.166;2023-07-31T14:53:31;16.20;99.90
16172;DHT22;8192;53.596;10.166;2023-07-31T14:55:58;16.10;99.90
16172;DHT22;8192;53.596;10.166;2023-07-31T14:58:25;16.20;99.90
16172;DHT22;8192;53.596;10.166;2023-07-31T15:00:52;16.20;99.90
16172;DHT22;8192;53.596;10.166;2023-07-31T15:03:19;16.30;99.90
16172;DHT22;8192;53.596;10.166;2023-07-31T15:05:46;16.40;99.90
16172;DHT22;8192;53.596;10.166;2023-07-31T15:08:13;16.40;99.90
16172;DHT22;8192;53.596;10.166;2023-07-31T15:10:43;16.40;99.90
16172;DHT22;8192;53.596;10.166;2023-07-31T15:13:10;16.40;99.90
16172;DHT22;8192;53.596;10.166;2023-07-31T15:15:37;16.50;99.90
16172;DHT22;8192;53.596;10.166;2023-07-31T15:18:04;16.50;99.90
16172;DHT22;8192;53.596;10.166;2023-07-31T15:20:31;16.50;99.90
16172;DHT22;8192;53.596;10.166;2023-07-31T15:22:58;16.50;99.90
16172;DHT22;8192;53.596;10.166;2023-07-31T15:25:25;16.50;99.90
16172;DHT22;8192;53.596;10.166;2023-07-31T15:27:53;16.50;99.90
16172;DHT22;8192;53.596;10.166;2023-07-31T15:30:20;16.40;99.90
16172;DHT22;8192;53.596;10.166;2023-07-31T15:32:47;16.50;99.90
16172;DHT22;8192;53.596;10.166;2023-07-31T15:35:15;16.60;99.90
16172;DHT22;8192;53.596;10.166;2023-07-31T15:37:42;16.70;99.90